createdAt,value
2023-05-06T00:00:41.571Z,13.47
2023-05-06T00:03:10.113Z,13.50
2023-05-06T00:05:37.706Z,13.47
2023-05-06T00:08:06.202Z,13.47
2023-05-06T00:10:34.046Z,13.47
2023-05-06T00:13:01.622Z,13.44
2023-05-06T00:15:30.879Z,13.46
2023-05-06T00:18:00.492Z,13.46
2023-05-06T00:20:29.234Z,13.47
2023-05-06T00:22:56.937Z,13.50
2023-05-06T00:25:24.827Z,13.57
2023-05-06T00:27:53.296Z,13.63
2023-05-06T00:30:20.829Z,13.68
2023-05-06T00:32:48.769Z,13.70
2023-05-06T00:35:16.369Z,13.59
2023-05-06T00:37:47.192Z,13.38
2023-05-06T00:40:14.993Z,13.25
2023-05-06T00:42:42.561Z,13.14
2023-05-06T00:45:10.786Z,13.21
2023-05-06T00:47:38.972Z,13.14
2023-05-06T00:50:07.634Z,13.23
2023-05-06T00:52:35.372Z,13.30
2023-05-06T00:55:03.747Z,13.36
2023-05-06T00:57:31.478Z,13.41
2023-05-06T00:59:58.981Z,13.44
2023-05-06T01:02:36.407Z,13.47
2023-05-06T01:05:14.063Z,13.41
2023-05-06T01:08:23.892Z,13.42
2023-05-06T01:11:15.829Z,13.48
2023-05-06T01:14:02.039Z,13.52
2023-05-06T01:16:31.982Z,13.58
2023-05-06T01:19:00.575Z,13.58
2023-05-06T01:21:34.993Z,13.59
2023-05-06T01:24:02.859Z,13.52
2023-05-06T01:26:30.432Z,13.46
2023-05-06T01:28:58.652Z,13.43
2023-05-06T01:31:32.170Z,13.27
2023-05-06T01:34:14.369Z,13.27
2023-05-06T01:37:07.022Z,13.28
2023-05-06T01:39:34.864Z,13.13
2023-05-06T01:42:02.909Z,13.00
2023-05-06T01:44:34.001Z,12.94
2023-05-06T01:47:03.219Z,12.98
2023-05-06T01:49:30.949Z,12.97
2023-05-06T01:51:58.561Z,12.88
2023-05-06T01:54:26.387Z,12.74
2023-05-06T01:56:54.303Z,12.63
2023-05-06T01:59:21.879Z,12.53
2023-05-06T02:01:49.763Z,12.42
2023-05-06T02:04:17.606Z,12.29
2023-05-06T02:06:45.273Z,12.40
2023-05-06T02:09:13.395Z,12.41
2023-05-06T02:11:41.506Z,12.44
2023-05-06T02:14:09.027Z,12.46
2023-05-06T02:16:37.076Z,12.37
2023-05-06T02:19:06.387Z,12.44
2023-05-06T02:21:34.805Z,12.41
2023-05-06T02:24:02.620Z,12.39
2023-05-06T02:26:30.150Z,12.28
2023-05-06T02:28:57.910Z,12.25
2023-05-06T02:31:25.849Z,12.19
2023-05-06T02:33:53.314Z,12.04
2023-05-06T02:36:20.766Z,11.95
2023-05-06T02:38:48.530Z,11.84
2023-05-06T02:41:16.038Z,11.84
2023-05-06T02:43:43.560Z,11.88
2023-05-06T02:46:11.561Z,11.85
2023-05-06T02:48:39.107Z,11.85
2023-05-06T02:51:06.645Z,11.82
2023-05-06T02:53:34.434Z,11.81
2023-05-06T02:56:01.989Z,11.74
2023-05-06T02:58:29.547Z,11.83
2023-05-06T03:00:57.448Z,11.75
2023-05-06T03:03:25.007Z,11.66
2023-05-06T03:05:52.496Z,11.71
2023-05-06T03:08:20.575Z,11.62
2023-05-06T03:10:48.312Z,11.57
2023-05-06T03:13:16.762Z,11.65
2023-05-06T03:15:44.864Z,11.68
2023-05-06T03:18:12.459Z,11.65
2023-05-06T03:20:40.303Z,11.63
2023-05-06T03:23:08.121Z,11.66
2023-05-06T03:25:36.272Z,11.61
2023-05-06T03:28:04.008Z,11.51
2023-05-06T03:30:33.226Z,11.41
2023-05-06T03:33:01.759Z,11.39
2023-05-06T03:35:29.746Z,11.42
2023-05-06T03:37:58.022Z,11.48
2023-05-06T03:40:25.941Z,11.48
2023-05-06T03:42:53.918Z,11.43
2023-05-06T03:45:22.192Z,11.56
2023-05-06T03:47:49.913Z,11.55
2023-05-06T03:50:18.097Z,11.57
2023-05-06T03:52:46.651Z,11.53
2023-05-06T03:55:14.793Z,11.56
2023-05-06T03:57:42.464Z,11.56
2023-05-06T04:00:12.160Z,11.60
2023-05-06T04:02:43.723Z,11.65
2023-05-06T04:05:12.589Z,11.56
2023-05-06T04:07:40.271Z,11.55
2023-05-06T04:10:08.647Z,11.58
2023-05-06T04:12:36.849Z,11.61
2023-05-06T04:17:33.224Z,11.57
2023-05-06T04:20:01.579Z,11.59
2023-05-06T04:22:29.136Z,11.56
2023-05-06T04:24:57.824Z,11.60
2023-05-06T04:27:27.664Z,11.67
2023-05-06T04:29:56.474Z,11.70
2023-05-06T04:32:25.371Z,11.75
2023-05-06T04:34:53.957Z,11.81
2023-05-06T04:37:21.499Z,11.85
2023-05-06T04:39:49.393Z,11.86
2023-05-06T04:42:17.570Z,11.86
2023-05-06T04:44:45.778Z,11.94
2023-05-06T04:47:13.330Z,12.05
2023-05-06T04:49:44.702Z,12.14
2023-05-06T04:52:13.086Z,12.24
2023-05-06T04:54:40.658Z,12.43
2023-05-06T04:57:08.722Z,12.50
2023-05-06T04:59:37.236Z,12.60
2023-05-06T05:02:04.900Z,12.72
2023-05-06T05:04:32.730Z,12.83
2023-05-06T05:07:00.378Z,12.95
2023-05-06T05:09:28.585Z,13.04
2023-05-06T05:11:57.232Z,13.13
2023-05-06T05:14:24.888Z,13.25
2023-05-06T05:16:52.579Z,13.34
2023-05-06T05:19:21.362Z,13.44
2023-05-06T05:21:50.094Z,13.51
2023-05-06T05:24:18.146Z,13.62
2023-05-06T05:26:45.994Z,13.73
2023-05-06T05:29:13.497Z,13.84
2023-05-06T05:31:42.002Z,13.93
2023-05-06T05:34:10.192Z,14.07
2023-05-06T05:36:37.806Z,14.21
2023-05-06T05:39:06.551Z,14.35
2023-05-06T05:41:34.989Z,14.47
2023-05-06T05:44:03.014Z,14.55
2023-05-06T05:46:30.880Z,14.68
2023-05-06T05:48:58.819Z,14.86
2023-05-06T05:51:26.666Z,15.01
2023-05-06T05:53:54.911Z,15.22
2023-05-06T05:56:23.552Z,15.39
2023-05-06T05:58:51.282Z,15.72
2023-05-06T06:01:18.964Z,16.33
2023-05-06T06:03:47.950Z,16.91
2023-05-06T06:06:15.786Z,17.23
2023-05-06T06:08:43.624Z,17.59
2023-05-06T06:11:12.760Z,17.86
2023-05-06T06:13:40.738Z,18.10
2023-05-06T06:16:08.988Z,18.38
2023-05-06T06:18:37.532Z,18.63
2023-05-06T06:21:05.509Z,18.79
2023-05-06T06:23:33.064Z,18.94
2023-05-06T06:26:03.004Z,19.10
2023-05-06T06:28:31.417Z,19.36
2023-05-06T06:30:59.661Z,19.57
2023-05-06T06:33:27.667Z,19.76
2023-05-06T06:35:55.217Z,19.93
2023-05-06T06:38:22.800Z,20.10
2023-05-06T06:40:50.673Z,20.33
2023-05-06T06:43:19.968Z,20.54
2023-05-06T06:45:48.312Z,20.66
2023-05-06T06:48:16.559Z,20.85
2023-05-06T06:50:44.121Z,20.90
2023-05-06T06:53:11.742Z,21.03
2023-05-06T06:55:43.183Z,21.21
2023-05-06T06:58:10.813Z,21.36
2023-05-06T07:00:38.559Z,21.33
2023-05-06T07:03:06.432Z,21.57
2023-05-06T07:05:34.161Z,21.80
2023-05-06T07:08:01.654Z,21.96
2023-05-06T07:10:29.503Z,21.63
2023-05-06T07:12:58.345Z,21.88
2023-05-06T07:15:26.109Z,22.02
2023-05-06T07:17:54.057Z,22.14
2023-05-06T07:20:21.603Z,22.28
2023-05-06T07:22:49.112Z,22.38
2023-05-06T07:25:17.103Z,22.46
2023-05-06T07:27:44.652Z,22.55
2023-05-06T07:30:12.534Z,22.81
2023-05-06T07:32:41.414Z,22.83
2023-05-06T07:35:09.773Z,22.98
2023-05-06T07:37:37.526Z,23.10
2023-05-06T07:40:06.145Z,23.14
2023-05-06T07:42:33.666Z,23.13
2023-05-06T07:45:01.225Z,23.33
2023-05-06T07:47:31.670Z,23.43
2023-05-06T07:50:00.912Z,23.34
2023-05-06T07:52:28.805Z,23.47
2023-05-06T07:54:56.277Z,23.40
2023-05-06T07:57:23.820Z,23.54
2023-05-06T07:59:52.899Z,23.69
2023-05-06T08:02:21.937Z,23.93
2023-05-06T08:04:51.610Z,23.79
2023-05-06T08:07:19.766Z,23.94
2023-05-06T08:09:47.289Z,23.90
2023-05-06T08:12:16.150Z,23.51
2023-05-06T08:14:43.692Z,23.57
2023-05-06T08:17:11.256Z,23.92
2023-05-06T08:19:39.058Z,23.88
2023-05-06T08:22:06.525Z,23.86
2023-05-06T08:24:34.028Z,24.25
2023-05-06T08:27:02.173Z,24.44
2023-05-06T08:29:31.453Z,24.71
2023-05-06T08:31:59.055Z,24.83
2023-05-06T08:34:26.980Z,25.08
2023-05-06T08:36:54.474Z,25.27
2023-05-06T08:39:21.963Z,25.39
2023-05-06T08:41:52.454Z,25.44
2023-05-06T08:44:24.204Z,25.08
2023-05-06T08:46:52.091Z,25.25
2023-05-06T08:49:19.641Z,25.31
2023-05-06T08:51:49.644Z,25.14
2023-05-06T08:54:18.175Z,25.31
2023-05-06T08:56:50.603Z,24.93
2023-05-06T08:59:26.006Z,25.26
2023-05-06T09:01:53.606Z,25.39
2023-05-06T09:04:21.985Z,25.61
2023-05-06T09:06:49.549Z,25.81
2023-05-06T09:09:17.037Z,25.83
2023-05-06T09:11:44.913Z,25.85
2023-05-06T09:14:12.438Z,25.98
2023-05-06T09:16:42.915Z,26.07
2023-05-06T09:19:11.649Z,26.01
2023-05-06T09:21:41.666Z,25.97
2023-05-06T09:24:10.644Z,26.10
2023-05-06T09:26:40.745Z,26.10
2023-05-06T09:29:08.738Z,25.74
2023-05-06T09:31:44.775Z,25.76
2023-05-06T09:34:13.633Z,25.87
2023-05-06T09:36:41.494Z,25.61
2023-05-06T09:39:10.116Z,25.61
2023-05-06T09:41:38.197Z,25.83
2023-05-06T09:44:06.325Z,25.90
2023-05-06T09:46:34.495Z,25.79
2023-05-06T09:49:02.664Z,25.47
2023-05-06T09:51:31.116Z,25.80
2023-05-06T09:54:00.889Z,25.56
2023-05-06T09:56:31.287Z,25.64
2023-05-06T09:59:01.503Z,25.18
2023-05-06T10:01:36.560Z,25.23
2023-05-06T10:04:10.016Z,25.34
2023-05-06T10:06:40.594Z,25.68
2023-05-06T10:09:09.424Z,25.79
2023-05-06T10:11:37.286Z,26.12
2023-05-06T10:14:05.882Z,26.33
2023-05-06T10:16:36.206Z,26.34
2023-05-06T10:19:06.697Z,26.23
2023-05-06T10:21:39.622Z,26.43
2023-05-06T10:24:11.781Z,26.27
2023-05-06T10:26:42.554Z,26.12
2023-05-06T10:29:11.069Z,26.32
2023-05-06T10:31:45.016Z,25.89
2023-05-06T10:34:13.610Z,26.03
2023-05-06T10:36:44.366Z,26.20
2023-05-06T10:39:14.363Z,26.51
2023-05-06T10:41:42.339Z,26.73
2023-05-06T10:44:10.237Z,26.91
2023-05-06T10:46:57.752Z,26.99
2023-05-06T10:49:25.906Z,26.08
2023-05-06T10:52:13.236Z,26.49
2023-05-06T10:54:51.654Z,26.09
2023-05-06T10:57:21.880Z,25.75
2023-05-06T10:59:49.797Z,25.86
2023-05-06T11:02:20.205Z,25.74
2023-05-06T11:04:53.165Z,25.92
2023-05-06T11:07:23.572Z,25.58
2023-05-06T11:10:06.247Z,25.22
2023-05-06T11:12:53.822Z,24.84
2023-05-06T11:15:39.897Z,25.37
2023-05-06T11:18:29.364Z,25.54
2023-05-06T11:21:03.199Z,25.73
2023-05-06T11:23:43.473Z,26.25
2023-05-06T11:26:11.823Z,26.53
2023-05-06T11:28:43.124Z,26.67
2023-05-06T11:31:12.580Z,26.93
2023-05-06T11:33:48.861Z,26.93
2023-05-06T11:36:18.365Z,27.16
2023-05-06T11:38:53.033Z,27.12
2023-05-06T11:41:23.613Z,27.34
2023-05-06T11:43:53.525Z,27.48
2023-05-06T11:46:23.733Z,27.56
2023-05-06T11:48:51.818Z,27.82
2023-05-06T11:51:23.036Z,27.69
2023-05-06T11:53:52.035Z,27.84
2023-05-06T11:56:19.572Z,28.10
2023-05-06T11:58:47.274Z,28.09
2023-05-06T12:01:15.102Z,26.13
2023-05-06T12:03:43.090Z,26.11
2023-05-06T12:06:11.183Z,26.21
2023-05-06T12:08:39.872Z,25.92
2023-05-06T12:11:08.984Z,26.44
2023-05-06T12:13:37.772Z,26.84
2023-05-06T12:16:08.789Z,27.05
2023-05-06T12:18:36.750Z,26.10
2023-05-06T12:21:04.448Z,26.43
2023-05-06T12:23:32.104Z,26.60
2023-05-06T12:26:08.350Z,26.72
2023-05-06T12:28:37.116Z,26.94
2023-05-06T12:31:22.174Z,27.10
2023-05-06T12:33:50.712Z,27.19
2023-05-06T12:36:19.338Z,27.58
2023-05-06T12:38:54.195Z,27.74
2023-05-06T12:41:23.225Z,27.90
2023-05-06T12:43:52.939Z,27.70
2023-05-06T12:46:20.598Z,26.59
2023-05-06T12:48:59.235Z,25.95
2023-05-06T12:51:27.427Z,25.79
2023-05-06T12:53:55.241Z,25.43
2023-05-06T12:56:23.309Z,25.35
2023-05-06T12:59:03.578Z,25.11
2023-05-06T13:01:31.857Z,25.22
2023-05-06T13:03:59.494Z,25.44
2023-05-06T13:06:27.017Z,25.40
2023-05-06T13:08:54.801Z,25.80
2023-05-06T13:11:22.353Z,26.20
2023-05-06T13:13:49.999Z,26.53
2023-05-06T13:16:18.275Z,26.80
2023-05-06T13:18:45.821Z,27.00
2023-05-06T13:21:14.141Z,26.78
2023-05-06T13:23:47.020Z,26.99
2023-05-06T13:26:15.770Z,26.71
2023-05-06T13:28:43.616Z,26.79
2023-05-06T13:31:11.146Z,27.00
2023-05-06T13:33:38.640Z,27.12
2023-05-06T13:36:06.756Z,27.32
2023-05-06T13:38:34.316Z,26.85
2023-05-06T13:41:01.913Z,26.52
2023-05-06T13:43:29.696Z,26.36
2023-05-06T13:45:57.214Z,25.99
2023-05-06T13:48:24.766Z,25.75
2023-05-06T13:50:52.666Z,26.03
2023-05-06T13:53:20.242Z,26.19
2023-05-06T13:55:47.890Z,26.38
2023-05-06T13:58:17.202Z,26.29
2023-05-06T14:00:44.756Z,26.31
2023-05-06T14:03:12.762Z,26.61
2023-05-06T14:05:40.456Z,26.74
2023-05-06T14:08:08.423Z,26.55
2023-05-06T14:10:36.255Z,26.85
2023-05-06T14:13:06.779Z,26.87
2023-05-06T14:15:34.883Z,27.09
2023-05-06T14:18:04.212Z,27.03
2023-05-06T14:20:31.877Z,27.22
2023-05-06T14:22:59.382Z,27.17
2023-05-06T14:25:28.162Z,27.05
2023-05-06T14:27:55.736Z,26.96
2023-05-06T14:30:23.295Z,26.88
2023-05-06T14:32:51.589Z,26.86
2023-05-06T14:35:19.187Z,26.89
2023-05-06T14:37:46.745Z,26.76
2023-05-06T14:40:15.734Z,26.63
2023-05-06T14:42:43.972Z,26.65
2023-05-06T14:45:13.142Z,26.50
2023-05-06T14:47:41.416Z,26.46
2023-05-06T14:50:10.770Z,26.41
2023-05-06T14:52:40.293Z,26.27
2023-05-06T14:55:10.292Z,26.22
2023-05-06T14:57:38.147Z,26.23
2023-05-06T15:00:10.010Z,26.23
2023-05-06T15:02:38.435Z,25.86
2023-05-06T15:05:13.445Z,25.97
2023-05-06T15:07:41.874Z,25.95
2023-05-06T15:10:09.678Z,25.92
2023-05-06T15:12:37.542Z,25.88
2023-05-06T15:15:06.582Z,25.92
2023-05-06T15:17:34.106Z,25.96
2023-05-06T15:20:01.975Z,26.01
2023-05-06T15:22:29.855Z,25.89
2023-05-06T15:24:57.371Z,25.94
2023-05-06T15:27:24.834Z,25.85
2023-05-06T15:29:52.609Z,25.74
2023-05-06T15:32:20.186Z,25.70
2023-05-06T15:34:47.779Z,25.76
2023-05-06T15:37:19.247Z,25.76
2023-05-06T15:39:47.944Z,25.68
2023-05-06T15:42:18.876Z,25.54
2023-05-06T15:44:47.836Z,25.47
2023-05-06T15:47:15.372Z,25.46
2023-05-06T15:52:13.698Z,25.25
2023-05-06T15:54:41.377Z,25.17
2023-05-06T15:57:09.841Z,25.16
2023-05-06T15:59:37.390Z,25.12
2023-05-06T16:04:35.942Z,25.07
2023-05-06T16:07:03.643Z,25.01
2023-05-06T16:09:31.142Z,24.94
2023-05-06T16:11:59.120Z,24.85
2023-05-06T16:14:26.716Z,24.83
2023-05-06T16:16:54.192Z,24.77
2023-05-06T16:19:22.174Z,24.67
2023-05-06T16:21:49.877Z,24.63
2023-05-06T16:24:17.385Z,24.60
2023-05-06T16:26:45.167Z,24.60
2023-05-06T16:29:12.788Z,24.55
2023-05-06T16:31:40.409Z,24.49
2023-05-06T16:34:08.288Z,24.45
2023-05-06T16:36:35.789Z,24.40
2023-05-06T16:39:03.540Z,24.37
2023-05-06T16:41:31.365Z,24.34
2023-05-06T16:43:58.907Z,24.28
2023-05-06T16:46:26.480Z,24.20
2023-05-06T16:48:54.679Z,24.15
2023-05-06T16:51:22.266Z,24.09
2023-05-06T16:53:49.786Z,24.05
2023-05-06T16:56:17.979Z,23.99
2023-05-06T16:58:45.565Z,23.90
2023-05-06T17:01:13.125Z,23.87
2023-05-06T17:03:41.157Z,23.83
2023-05-06T17:06:08.640Z,23.73
2023-05-06T17:08:37.176Z,23.62
2023-05-06T17:11:06.876Z,23.44
2023-05-06T17:13:34.694Z,23.29
2023-05-06T17:16:02.223Z,23.15
2023-05-06T17:18:30.050Z,23.05
2023-05-06T17:20:57.890Z,22.89
2023-05-06T17:23:25.491Z,22.75
2023-05-06T17:25:56.071Z,22.62
2023-05-06T17:28:23.620Z,22.50
2023-05-06T17:30:51.321Z,22.32
2023-05-06T17:33:19.161Z,22.28
2023-05-06T17:35:46.681Z,22.18
2023-05-06T17:38:14.636Z,22.03
2023-05-06T17:40:43.916Z,21.98
2023-05-06T17:43:11.432Z,21.84
2023-05-06T17:45:40.656Z,21.70
2023-05-06T17:48:08.544Z,21.67
2023-05-06T17:50:36.083Z,21.57
2023-05-06T17:53:03.588Z,21.52
2023-05-06T17:55:31.436Z,21.43
2023-05-06T17:57:59.679Z,21.35
2023-05-06T18:00:27.232Z,21.25
2023-05-06T18:02:55.617Z,21.10
2023-05-06T18:05:25.660Z,20.97
2023-05-06T18:07:53.215Z,20.91
2023-05-06T18:10:21.297Z,20.65
2023-05-06T18:12:48.902Z,20.52
2023-05-06T18:15:16.419Z,20.40
2023-05-06T18:17:44.350Z,20.28
2023-05-06T18:20:12.562Z,20.14
2023-05-06T18:22:40.161Z,19.98
2023-05-06T18:25:08.818Z,19.84
2023-05-06T18:27:37.234Z,19.80
2023-05-06T18:30:05.203Z,19.77
2023-05-06T18:32:34.185Z,19.78
2023-05-06T18:35:01.688Z,19.75
2023-05-06T18:37:29.605Z,19.57
2023-05-06T18:39:57.511Z,19.47
2023-05-06T18:42:27.533Z,19.32
2023-05-06T18:44:56.548Z,19.24
2023-05-06T18:47:25.747Z,19.11
2023-05-06T18:49:53.539Z,19.11
2023-05-06T18:52:22.031Z,18.98
2023-05-06T18:54:49.872Z,18.86
2023-05-06T18:57:17.413Z,18.69
2023-05-06T18:59:45.100Z,18.57
2023-05-06T19:02:12.967Z,18.61
2023-05-06T19:04:40.561Z,18.52
2023-05-06T19:07:08.108Z,18.45
2023-05-06T19:09:37.302Z,18.35
2023-05-06T19:12:04.892Z,18.16
2023-05-06T19:14:34.626Z,18.13
2023-05-06T19:17:03.762Z,18.06
2023-05-06T19:19:31.467Z,17.95
2023-05-06T19:21:59.837Z,17.86
2023-05-06T19:24:27.671Z,17.78
2023-05-06T19:26:55.192Z,17.79
2023-05-06T19:29:22.714Z,17.78
2023-05-06T19:31:50.543Z,17.72
2023-05-06T19:34:18.037Z,17.67
2023-05-06T19:36:45.648Z,17.68
2023-05-06T19:39:13.594Z,17.67
2023-05-06T19:41:41.113Z,17.56
2023-05-06T19:44:08.652Z,17.49
2023-05-06T19:46:36.610Z,17.43
2023-05-06T19:49:04.226Z,17.25
2023-05-06T19:51:32.450Z,17.26
2023-05-06T19:54:00.278Z,17.11
2023-05-06T19:56:27.932Z,17.08
2023-05-06T19:58:55.451Z,17.13
2023-05-06T20:01:24.383Z,17.11
2023-05-06T20:03:52.583Z,17.07
2023-05-06T20:06:20.349Z,16.98
2023-05-06T20:08:47.930Z,16.98
2023-05-06T20:11:15.805Z,16.88
2023-05-06T20:13:43.320Z,16.89
2023-05-06T20:16:10.852Z,16.86
2023-05-06T20:18:40.682Z,16.80
2023-05-06T20:21:08.265Z,16.68
2023-05-06T20:23:35.748Z,16.47
2023-05-06T20:26:03.524Z,16.49
2023-05-06T20:28:31.587Z,16.42
2023-05-06T20:30:59.926Z,16.37
2023-05-06T20:33:27.890Z,16.40
2023-05-06T20:35:55.520Z,16.53
2023-05-06T20:38:23.042Z,16.63
2023-05-06T20:40:50.942Z,16.66
2023-05-06T20:43:18.405Z,16.56
2023-05-06T20:45:46.087Z,16.51
2023-05-06T20:48:15.081Z,16.43
2023-05-06T20:50:42.869Z,16.40
2023-05-06T20:53:10.703Z,16.38
2023-05-06T20:55:38.516Z,16.28
2023-05-06T20:58:06.237Z,16.21
2023-05-06T21:00:33.768Z,16.14
2023-05-06T21:03:01.699Z,16.05
2023-05-06T21:05:29.376Z,16.03
2023-05-06T21:07:56.890Z,16.02
2023-05-06T21:10:24.750Z,15.86
2023-05-06T21:12:52.330Z,15.79
2023-05-06T21:15:20.162Z,15.80
2023-05-06T21:17:49.082Z,15.68
2023-05-06T21:20:16.895Z,15.79
2023-05-06T21:22:44.429Z,15.88
2023-05-06T21:25:13.403Z,15.95
2023-05-06T21:27:41.033Z,15.86
2023-05-06T21:30:09.151Z,15.83
2023-05-06T21:32:37.101Z,15.84
2023-05-06T21:35:05.482Z,15.87
2023-05-06T21:37:33.285Z,15.94
2023-05-06T21:40:04.396Z,16.00
2023-05-06T21:42:32.013Z,15.99
2023-05-06T21:44:59.537Z,16.06
2023-05-06T21:47:27.385Z,16.05
2023-05-06T21:49:54.882Z,16.08
2023-05-06T21:52:22.472Z,16.20
2023-05-06T21:54:50.252Z,16.30
2023-05-06T21:57:18.848Z,16.36
2023-05-06T21:59:46.476Z,16.36
2023-05-06T22:02:14.461Z,16.19
2023-05-06T22:04:42.494Z,15.72
2023-05-06T22:07:10.039Z,15.43
2023-05-06T22:09:37.620Z,15.57
2023-05-06T22:12:08.574Z,15.71
2023-05-06T22:14:41.137Z,15.80
2023-05-06T22:17:10.562Z,15.85
2023-05-06T22:19:38.679Z,15.88
2023-05-06T22:22:06.730Z,15.93
2023-05-06T22:24:34.612Z,16.01
2023-05-06T22:27:02.121Z,16.01
2023-05-06T22:29:29.673Z,15.93
2023-05-06T22:31:57.597Z,15.80
2023-05-06T22:34:25.095Z,15.72
2023-05-06T22:36:52.565Z,15.58
2023-05-06T22:39:20.555Z,15.52
2023-05-06T22:41:50.379Z,15.50
2023-05-06T22:44:17.919Z,15.48
2023-05-06T22:46:45.746Z,15.37
2023-05-06T22:49:14.521Z,15.25
2023-05-06T22:51:42.390Z,15.21
2023-05-06T22:54:10.233Z,15.18
2023-05-06T22:56:37.870Z,15.10
2023-05-06T22:59:05.723Z,15.06
2023-05-06T23:01:33.559Z,15.00
2023-05-06T23:04:01.166Z,14.98
2023-05-06T23:06:28.852Z,14.95
2023-05-06T23:08:56.735Z,14.93
2023-05-06T23:11:24.369Z,14.92
2023-05-06T23:13:51.859Z,14.91
2023-05-06T23:16:19.656Z,14.92
2023-05-06T23:18:47.185Z,14.92
2023-05-06T23:21:15.197Z,14.90
2023-05-06T23:23:43.051Z,14.88
2023-05-06T23:26:10.574Z,14.90
2023-05-06T23:28:38.071Z,14.81
2023-05-06T23:31:05.949Z,14.83
2023-05-06T23:33:33.429Z,14.75
2023-05-06T23:36:01.758Z,14.78
2023-05-06T23:38:29.585Z,14.58
2023-05-06T23:40:57.124Z,14.53
2023-05-06T23:43:24.603Z,14.50
2023-05-06T23:45:52.498Z,14.49
2023-05-06T23:48:20.061Z,14.37
2023-05-06T23:50:48.575Z,14.39
2023-05-06T23:53:16.872Z,14.32
2023-05-06T23:55:44.526Z,14.28
2023-05-06T23:58:12.128Z,14.32
